createdAt,value
2022-11-14T00:01:23.226Z,88.07
2022-11-14T00:03:51.926Z,88.10
2022-11-14T00:06:20.047Z,90.26
2022-11-14T00:08:49.154Z,89.19
2022-11-14T00:11:16.970Z,88.85
2022-11-14T00:13:45.138Z,89.78
2022-11-14T00:16:13.094Z,89.36
2022-11-14T00:18:40.963Z,90.13
2022-11-14T00:21:08.862Z,89.16
2022-11-14T00:23:36.722Z,88.88
2022-11-14T00:26:05.855Z,88.56
2022-11-14T00:28:33.813Z,89.87
2022-11-14T00:31:01.871Z,88.44
2022-11-14T00:33:29.993Z,89.08
2022-11-14T00:35:58.710Z,88.91
2022-11-14T00:38:26.571Z,89.48
2022-11-14T00:40:54.476Z,88.65
2022-11-14T00:43:23.891Z,89.17
2022-11-14T00:45:51.758Z,89.19
2022-11-14T00:48:19.626Z,88.53
2022-11-14T00:50:47.512Z,88.19
2022-11-14T00:53:15.341Z,88.72
2022-11-14T00:55:44.331Z,88.43
2022-11-14T00:58:12.225Z,88.98
2022-11-14T01:00:41.356Z,89.19
2022-11-14T01:03:09.207Z,88.76
2022-11-14T01:05:42.072Z,88.27
2022-11-14T01:08:09.982Z,89.20
2022-11-14T01:10:40.963Z,89.21
2022-11-14T01:13:09.336Z,89.02
2022-11-14T01:15:41.700Z,88.17
2022-11-14T01:18:09.597Z,89.07
2022-11-14T01:20:39.580Z,88.66
2022-11-14T01:23:07.466Z,88.90
2022-11-14T01:25:35.783Z,89.04
2022-11-14T01:28:06.378Z,88.68
2022-11-14T01:30:34.223Z,88.11
2022-11-14T01:33:03.588Z,88.57
2022-11-14T01:35:32.139Z,89.32
2022-11-14T01:37:59.945Z,88.48
2022-11-14T01:40:28.590Z,88.77
2022-11-14T01:43:25.246Z,89.82
2022-11-14T01:45:56.289Z,88.86
2022-11-14T01:48:29.861Z,88.64
2022-11-14T01:51:02.028Z,89.12
2022-11-14T01:53:30.349Z,88.10
2022-11-14T01:56:01.498Z,87.74
2022-11-14T01:58:30.663Z,88.18
2022-11-14T02:00:59.427Z,88.38
2022-11-14T02:03:28.921Z,88.83
2022-11-14T02:05:58.001Z,88.77
2022-11-14T02:08:27.456Z,88.48
2022-11-14T02:10:55.627Z,87.99
2022-11-14T02:13:23.555Z,88.53
2022-11-14T02:15:51.454Z,88.95
2022-11-14T02:18:19.228Z,89.04
2022-11-14T02:20:48.582Z,89.07
2022-11-14T02:23:25.971Z,88.75
2022-11-14T02:25:53.883Z,88.85
2022-11-14T02:28:22.000Z,88.88
2022-11-14T02:30:50.398Z,88.32
2022-11-14T02:33:18.261Z,88.98
2022-11-14T02:35:46.060Z,89.03
2022-11-14T02:38:15.112Z,88.15
2022-11-14T02:40:43.065Z,88.51
2022-11-14T02:43:10.914Z,88.19
2022-11-14T02:45:38.784Z,88.70
2022-11-14T02:48:06.916Z,88.47
2022-11-14T02:50:34.798Z,88.22
2022-11-14T02:53:02.638Z,89.42
2022-11-14T02:55:31.917Z,88.48
2022-11-14T02:57:59.817Z,88.49
2022-11-14T03:00:27.814Z,88.37
2022-11-14T03:02:55.684Z,88.83
2022-11-14T03:05:23.600Z,88.61
2022-11-14T03:07:54.219Z,88.09
2022-11-14T03:10:22.176Z,87.85
2022-11-14T03:12:54.656Z,88.65
2022-11-14T03:15:22.690Z,88.95
2022-11-14T03:17:51.065Z,88.72
2022-11-14T03:20:19.107Z,88.59
2022-11-14T03:22:46.863Z,88.98
2022-11-14T03:25:14.738Z,88.55
2022-11-14T03:27:42.488Z,88.40
2022-11-14T03:30:13.074Z,88.68
2022-11-14T03:32:41.014Z,88.21
2022-11-14T03:35:10.246Z,88.72
2022-11-14T03:37:38.062Z,88.16
2022-11-14T03:40:06.947Z,87.96
2022-11-14T03:42:35.024Z,87.82
2022-11-14T03:45:03.031Z,88.14
2022-11-14T03:47:32.250Z,88.02
2022-11-14T03:50:00.038Z,88.37
2022-11-14T03:52:27.903Z,88.75
2022-11-14T03:54:56.071Z,87.91
2022-11-14T03:57:23.906Z,88.72
2022-11-14T03:59:51.685Z,89.57
2022-11-14T04:02:19.446Z,89.25
2022-11-14T04:04:48.648Z,88.51
2022-11-14T04:07:16.684Z,88.51
2022-11-14T04:09:47.094Z,88.11
2022-11-14T04:12:16.061Z,88.21
2022-11-14T04:14:44.180Z,88.74
2022-11-14T04:17:12.093Z,88.42
2022-11-14T04:19:40.083Z,88.32
2022-11-14T04:22:09.410Z,88.89
2022-11-14T04:24:37.296Z,88.50
2022-11-14T04:27:05.174Z,89.52
2022-11-14T04:29:34.337Z,88.50
2022-11-14T04:32:02.203Z,88.70
2022-11-14T04:34:30.143Z,88.94
2022-11-14T04:36:58.106Z,88.57
2022-11-14T04:44:14.189Z,88.19
2022-11-14T04:46:42.153Z,88.71
2022-11-14T04:49:10.339Z,88.18
2022-11-14T04:51:38.158Z,88.83
2022-11-14T04:54:06.331Z,89.36
2022-11-14T04:56:34.122Z,89.53
2022-11-14T04:59:03.443Z,89.30
2022-11-14T05:01:31.263Z,88.61
2022-11-14T05:03:59.232Z,88.72
2022-11-14T05:06:27.074Z,87.97
2022-11-14T05:08:54.864Z,88.08
2022-11-14T05:11:27.968Z,86.84
2022-11-14T05:13:56.885Z,87.01
2022-11-14T05:16:26.150Z,86.55
2022-11-14T05:18:56.160Z,87.54
2022-11-14T05:21:24.161Z,87.67
2022-11-14T05:23:51.912Z,87.22
2022-11-14T05:26:20.475Z,87.80
2022-11-14T05:28:48.388Z,87.73
2022-11-14T05:31:17.823Z,86.25
2022-11-14T05:33:48.058Z,87.15
2022-11-14T05:36:17.820Z,87.08
2022-11-14T05:38:45.619Z,86.07
2022-11-14T05:41:16.402Z,86.24
2022-11-14T05:43:44.735Z,85.90
2022-11-14T05:46:14.336Z,86.37
2022-11-14T05:48:43.021Z,85.98
2022-11-14T05:51:14.107Z,85.64
2022-11-14T05:53:42.440Z,86.16
2022-11-14T05:56:13.182Z,86.23
2022-11-14T05:58:41.244Z,86.22
2022-11-14T06:01:11.611Z,87.14
2022-11-14T06:03:41.370Z,87.25
2022-11-14T06:06:12.954Z,86.60
2022-11-14T06:08:41.282Z,86.47
2022-11-14T06:11:10.788Z,86.98
2022-11-14T06:13:38.762Z,86.25
2022-11-14T06:16:09.296Z,86.91
2022-11-14T06:18:37.737Z,88.04
2022-11-14T06:21:11.258Z,87.13
2022-11-14T06:23:40.940Z,86.09
2022-11-14T06:26:20.230Z,86.50
2022-11-14T06:28:49.302Z,85.48
2022-11-14T06:31:17.376Z,85.28
2022-11-14T06:33:45.746Z,84.66
2022-11-14T06:36:14.571Z,85.05
2022-11-14T06:38:44.680Z,84.99
2022-11-14T06:41:13.762Z,84.72
2022-11-14T06:43:44.033Z,84.22
2022-11-14T06:46:14.555Z,83.99
2022-11-14T06:48:42.893Z,84.01
2022-11-14T06:51:11.936Z,85.15
2022-11-14T06:53:40.042Z,85.42
2022-11-14T06:56:11.815Z,84.72
2022-11-14T06:58:42.018Z,84.92
2022-11-14T07:01:13.453Z,84.35
2022-11-14T07:03:41.419Z,85.26
2022-11-14T07:06:11.206Z,84.72
2022-11-14T07:08:39.357Z,84.66
2022-11-14T07:11:10.552Z,84.66
2022-11-14T07:13:39.497Z,84.36
2022-11-14T07:16:07.766Z,84.55
2022-11-14T07:18:35.574Z,84.58
2022-11-14T07:21:05.589Z,84.88
2022-11-14T07:23:35.166Z,84.01
2022-11-14T07:26:04.488Z,84.05
2022-11-14T07:28:34.799Z,84.64
2022-11-14T07:31:04.223Z,84.49
2022-11-14T07:33:32.460Z,84.32
2022-11-14T07:36:00.294Z,84.01
2022-11-14T07:38:28.469Z,84.88
2022-11-14T07:40:59.582Z,84.26
2022-11-14T07:43:28.058Z,83.72
2022-11-14T07:45:59.984Z,84.70
2022-11-14T07:48:28.163Z,83.06
2022-11-14T07:51:00.245Z,83.55
2022-11-14T07:53:28.690Z,83.67
2022-11-14T07:55:56.712Z,83.09
2022-11-14T07:58:24.865Z,83.77
2022-11-14T08:00:52.676Z,83.41
2022-11-14T08:03:27.427Z,83.69
2022-11-14T08:06:07.043Z,83.33
2022-11-14T08:08:39.937Z,83.14
2022-11-14T08:11:09.638Z,82.40
2022-11-14T08:13:41.878Z,82.99
2022-11-14T08:16:14.909Z,83.01
2022-11-14T08:18:52.532Z,82.69
2022-11-14T08:21:25.350Z,82.99
2022-11-14T08:23:55.021Z,82.80
2022-11-14T08:26:32.921Z,81.92
2022-11-14T08:29:03.937Z,82.09
2022-11-14T08:31:39.218Z,82.46
2022-11-14T08:34:10.281Z,81.76
2022-11-14T08:36:39.493Z,81.94
2022-11-14T08:39:09.015Z,81.75
2022-11-14T08:41:41.316Z,81.55
2022-11-14T08:44:13.796Z,81.72
2022-11-14T08:46:54.058Z,81.37
2022-11-14T08:49:32.658Z,81.24
2022-11-14T08:52:16.364Z,81.69
2022-11-14T08:55:01.811Z,81.55
2022-11-14T08:57:39.219Z,81.82
2022-11-14T09:00:09.955Z,81.49
2022-11-14T09:02:51.201Z,80.62
2022-11-14T09:05:22.458Z,81.15
2022-11-14T09:07:55.211Z,80.96
2022-11-14T09:10:33.014Z,81.15
2022-11-14T09:13:08.116Z,81.10
2022-11-14T09:15:40.738Z,80.25
2022-11-14T09:18:15.194Z,79.98
2022-11-14T09:20:50.513Z,81.21
2022-11-14T09:23:20.129Z,77.25
2022-11-14T09:25:52.475Z,76.58
2022-11-14T09:28:25.214Z,75.77
2022-11-14T09:30:54.831Z,75.86
2022-11-14T09:51:51.972Z,74.46
2022-11-14T09:54:32.478Z,74.87
2022-11-14T09:57:05.084Z,74.38
2022-11-14T09:59:36.089Z,74.47
2022-11-14T10:02:53.868Z,74.29
2022-11-14T10:05:41.220Z,73.95
2022-11-14T10:08:49.635Z,74.44
2022-11-14T10:11:25.765Z,75.42
2022-11-14T10:14:15.054Z,73.68
2022-11-14T10:17:09.265Z,73.51
2022-11-14T10:19:50.866Z,72.94
2022-11-14T10:22:46.976Z,73.94
2022-11-14T10:25:39.604Z,73.85
2022-11-14T10:28:57.421Z,74.46
2022-11-14T10:32:02.639Z,74.17
2022-11-14T10:34:50.972Z,73.31
2022-11-14T10:40:28.697Z,73.53
2022-11-14T10:43:49.693Z,74.61
2022-11-14T10:46:50.190Z,74.00
2022-11-14T10:50:02.587Z,76.58
2022-11-14T10:53:02.215Z,73.25
2022-11-14T10:56:10.305Z,73.72
2022-11-14T10:58:48.253Z,71.60
2022-11-14T11:02:07.080Z,70.69
2022-11-14T11:08:43.180Z,68.57
2022-11-14T11:11:40.379Z,68.22
2022-11-14T11:14:40.204Z,67.66
2022-11-14T11:17:40.079Z,68.02
2022-11-14T11:20:28.225Z,67.99
2022-11-14T11:23:14.382Z,67.34
2022-11-14T11:26:21.238Z,67.52
2022-11-14T11:29:20.375Z,68.63
2022-11-14T11:35:39.788Z,67.42
2022-11-14T11:38:31.815Z,66.95
2022-11-14T11:42:07.661Z,66.06
2022-11-14T11:44:35.843Z,66.74
2022-11-14T11:47:09.935Z,65.92
2022-11-14T11:49:50.095Z,66.61
2022-11-14T11:52:30.003Z,66.95
2022-11-14T11:55:20.321Z,66.61
2022-11-14T11:57:56.239Z,67.88
2022-11-14T12:00:28.436Z,67.12
2022-11-14T12:02:58.874Z,68.09
2022-11-14T12:09:05.921Z,67.78
2022-11-14T12:12:10.450Z,67.98
2022-11-14T12:15:14.298Z,67.35
2022-11-14T12:18:22.996Z,66.61
2022-11-14T12:21:26.524Z,64.08
2022-11-14T12:44:39.298Z,66.17
2022-11-14T12:51:06.829Z,67.30
2022-11-14T12:53:54.426Z,66.97
2022-11-14T12:56:55.449Z,66.71
2022-11-14T12:59:38.546Z,67.25
2022-11-14T13:02:28.986Z,67.76
2022-11-14T13:05:24.282Z,68.06
2022-11-14T13:08:07.860Z,66.81
2022-11-14T13:10:40.082Z,66.60
2022-11-14T13:13:29.499Z,67.33
2022-11-14T13:16:16.982Z,67.91
2022-11-14T13:19:17.544Z,68.68
2022-11-14T13:22:18.522Z,69.49
2022-11-14T13:25:17.734Z,69.73
2022-11-14T13:28:06.681Z,71.81
2022-11-14T13:31:06.471Z,72.10
2022-11-14T13:33:44.815Z,72.39
2022-11-14T13:36:25.560Z,73.00
2022-11-14T13:39:13.013Z,74.11
2022-11-14T13:42:17.698Z,74.74
2022-11-14T13:45:26.474Z,75.84
2022-11-14T13:48:23.215Z,75.78
2022-11-14T13:50:53.777Z,76.04
2022-11-14T13:53:25.740Z,75.71
2022-11-14T13:55:59.075Z,76.41
2022-11-14T13:58:39.482Z,75.95
2022-11-14T14:01:23.295Z,75.51
2022-11-14T14:04:05.998Z,76.41
2022-11-14T14:06:47.005Z,76.28
2022-11-14T14:09:26.249Z,76.17
2022-11-14T14:12:11.367Z,76.17
2022-11-14T14:14:58.480Z,76.01
2022-11-14T14:17:34.131Z,76.15
2022-11-14T14:20:17.066Z,76.35
2022-11-14T14:22:54.868Z,75.26
2022-11-14T14:25:31.230Z,75.74
2022-11-14T14:28:10.420Z,75.01
2022-11-14T14:30:38.391Z,75.31
2022-11-14T14:33:13.249Z,75.43
2022-11-14T14:35:51.666Z,75.93
2022-11-14T14:38:25.827Z,75.42
2022-11-14T14:40:56.868Z,76.23
2022-11-14T14:43:29.933Z,75.48
2022-11-14T14:45:58.352Z,74.47
2022-11-14T14:52:42.472Z,74.87
2022-11-14T14:55:20.614Z,75.20
2022-11-14T14:57:50.023Z,75.27
2022-11-14T15:00:22.396Z,75.32
2022-11-14T15:02:51.186Z,75.63
2022-11-14T15:05:26.663Z,75.23
2022-11-14T15:07:58.187Z,74.96
2022-11-14T15:10:29.633Z,75.03
2022-11-14T15:13:00.105Z,75.00
2022-11-14T15:15:28.833Z,74.66
2022-11-14T15:17:58.619Z,74.49
2022-11-14T15:20:29.031Z,75.51
2022-11-14T15:23:18.798Z,75.63
2022-11-14T15:25:47.602Z,75.52
2022-11-14T15:28:20.919Z,75.71
2022-11-14T15:30:59.660Z,76.00
2022-11-14T15:33:29.420Z,76.15
2022-11-14T15:36:08.707Z,75.30
2022-11-14T15:38:54.290Z,75.72
2022-11-14T15:41:23.843Z,75.36
2022-11-14T15:43:55.420Z,74.85
2022-11-14T15:47:33.629Z,75.04
2022-11-14T15:50:08.416Z,75.07
2022-11-14T15:52:59.269Z,75.59
2022-11-14T15:55:31.720Z,75.79
2022-11-14T15:58:27.246Z,76.13
2022-11-14T16:00:59.996Z,75.65
2022-11-14T16:03:29.989Z,76.22
2022-11-14T16:10:15.569Z,75.65
2022-11-14T16:12:52.481Z,75.47
2022-11-14T16:15:23.369Z,75.74
2022-11-14T16:17:56.151Z,75.38
2022-11-14T16:20:27.763Z,75.60
2022-11-14T16:23:03.973Z,75.80
2022-11-14T16:25:35.092Z,76.65
2022-11-14T16:28:10.803Z,77.03
2022-11-14T16:30:40.451Z,76.38
2022-11-14T16:33:14.686Z,76.26
2022-11-14T16:35:44.795Z,76.62
2022-11-14T16:38:16.306Z,77.27
2022-11-14T16:40:46.289Z,76.88
2022-11-14T16:43:16.629Z,76.42
2022-11-14T16:45:46.926Z,76.53
2022-11-14T16:48:18.910Z,76.67
2022-11-14T16:50:56.512Z,77.07
2022-11-14T16:53:26.366Z,76.95
2022-11-14T16:56:01.636Z,77.12
2022-11-14T16:58:31.156Z,77.84
2022-11-14T17:01:12.876Z,76.78
2022-11-14T17:03:45.672Z,77.59
2022-11-14T17:06:17.824Z,77.46
2022-11-14T17:08:55.481Z,78.42
2022-11-14T17:11:26.134Z,78.21
2022-11-14T17:14:00.536Z,78.08
2022-11-14T17:16:37.612Z,77.84
2022-11-14T17:19:10.252Z,77.58
2022-11-14T17:21:40.140Z,77.14
2022-11-14T17:24:09.472Z,77.37
2022-11-14T17:26:40.840Z,77.91
2022-11-14T17:29:13.224Z,78.25
2022-11-14T17:31:47.133Z,77.86
2022-11-14T17:34:19.982Z,78.05
2022-11-14T17:36:49.298Z,78.27
2022-11-14T17:39:22.755Z,78.47
2022-11-14T17:41:54.689Z,77.93
2022-11-14T17:44:24.197Z,78.21
2022-11-14T17:46:54.052Z,77.99
2022-11-14T17:49:27.818Z,78.46
2022-11-14T17:51:59.607Z,78.31
2022-11-14T17:54:31.614Z,78.48
2022-11-14T17:57:01.903Z,77.74
2022-11-14T17:59:35.484Z,77.80
2022-11-14T18:02:05.066Z,76.93
2022-11-14T18:04:40.285Z,77.72
2022-11-14T18:07:13.603Z,78.16
2022-11-14T18:09:43.269Z,77.52
2022-11-14T18:12:16.251Z,78.26
2022-11-14T18:14:52.376Z,78.83
2022-11-14T18:17:26.647Z,78.25
2022-11-14T18:20:01.605Z,77.97
2022-11-14T18:22:32.418Z,76.74
2022-11-14T18:25:07.472Z,77.40
2022-11-14T18:27:37.196Z,77.43
2022-11-14T18:30:20.149Z,76.23
2022-11-14T18:32:54.036Z,76.09
2022-11-14T18:35:23.317Z,76.54
2022-11-14T18:37:51.202Z,76.19
2022-11-14T18:40:21.542Z,76.21
2022-11-14T18:42:49.493Z,76.14
2022-11-14T18:45:17.532Z,76.36
2022-11-14T18:47:45.454Z,76.42
2022-11-14T18:50:13.670Z,76.38
2022-11-14T18:52:42.978Z,75.71
2022-11-14T18:55:10.945Z,76.00
2022-11-14T18:57:41.882Z,75.13
2022-11-14T19:00:11.009Z,74.83
2022-11-14T19:02:38.849Z,75.10
2022-11-14T19:05:07.183Z,74.51
2022-11-14T19:07:35.274Z,74.76
2022-11-14T19:10:04.943Z,75.70
2022-11-14T19:12:33.063Z,74.54
2022-11-14T19:15:02.132Z,74.37
2022-11-14T19:17:30.028Z,73.60
2022-11-14T19:19:58.082Z,73.97
2022-11-14T19:22:25.978Z,74.08
2022-11-14T19:24:54.099Z,74.01
2022-11-14T19:27:23.440Z,73.80
2022-11-14T19:29:51.511Z,73.72
2022-11-14T19:32:19.647Z,74.23
2022-11-14T19:34:47.577Z,74.07
2022-11-14T19:37:15.458Z,73.93
2022-11-14T19:39:57.411Z,74.18
2022-11-14T19:46:53.589Z,74.58
2022-11-14T19:49:21.633Z,74.23
2022-11-14T19:51:50.058Z,73.77
2022-11-14T19:54:18.239Z,73.51
2022-11-14T19:56:46.265Z,73.18
2022-11-14T19:59:19.047Z,73.07
2022-11-14T20:01:55.423Z,74.06
2022-11-14T20:04:23.625Z,74.04
2022-11-14T20:14:30.634Z,75.41
2022-11-14T20:16:59.804Z,74.76
2022-11-14T20:19:29.716Z,75.53
2022-11-14T20:21:58.456Z,75.77
2022-11-14T20:24:27.001Z,76.50
2022-11-14T20:26:55.569Z,76.52
2022-11-14T20:29:38.315Z,76.72
2022-11-14T20:32:15.922Z,76.75
2022-11-14T20:34:44.918Z,76.43
2022-11-14T20:37:13.043Z,76.88
2022-11-14T20:39:41.080Z,77.06
2022-11-14T20:42:09.046Z,77.26
2022-11-14T20:44:38.403Z,77.66
2022-11-14T20:47:10.807Z,77.36
2022-11-14T20:49:39.522Z,77.35
2022-11-14T20:52:07.504Z,77.47
2022-11-14T20:54:35.552Z,77.19
2022-11-14T20:57:03.640Z,77.94
2022-11-14T20:59:46.861Z,77.58
2022-11-14T21:02:16.786Z,78.31
2022-11-14T21:04:53.361Z,78.31
2022-11-14T21:07:22.478Z,78.82
2022-11-14T21:10:14.214Z,79.04
2022-11-14T21:13:05.348Z,78.50
2022-11-14T21:15:38.541Z,79.41
2022-11-14T21:18:12.767Z,79.90
2022-11-14T21:20:42.982Z,80.01
2022-11-14T21:23:13.972Z,79.68
2022-11-14T21:25:51.112Z,80.81
2022-11-14T21:28:27.320Z,80.61
2022-11-14T21:31:15.846Z,80.67
2022-11-14T21:33:52.240Z,81.09
2022-11-14T21:39:21.197Z,80.04
2022-11-14T21:41:54.911Z,79.80
2022-11-14T21:44:31.296Z,79.70
2022-11-14T21:47:16.661Z,79.58
2022-11-14T21:50:00.884Z,80.84
2022-11-14T21:52:36.052Z,81.00
2022-11-14T21:55:30.568Z,81.16
2022-11-14T21:58:09.739Z,80.92
2022-11-14T22:01:41.427Z,81.54
2022-11-14T22:04:13.240Z,81.21
2022-11-14T22:07:00.907Z,80.71
2022-11-14T22:09:33.621Z,81.49
2022-11-14T22:12:14.523Z,80.91
2022-11-14T22:14:53.553Z,81.62
2022-11-14T22:17:29.901Z,81.61
2022-11-14T22:20:02.257Z,81.12
2022-11-14T22:22:33.319Z,80.83
2022-11-14T22:25:05.135Z,80.46
2022-11-14T22:27:41.793Z,80.36
2022-11-14T22:30:12.801Z,79.66
2022-11-14T22:33:12.332Z,79.83
2022-11-14T22:35:42.889Z,79.54
2022-11-14T22:38:15.567Z,80.54
2022-11-14T22:41:06.987Z,80.57
2022-11-14T22:43:44.106Z,79.96
2022-11-14T22:46:28.497Z,79.50
2022-11-14T22:49:05.797Z,80.14
2022-11-14T22:55:54.219Z,80.49
2022-11-14T23:05:32.063Z,80.98
2022-11-14T23:08:21.855Z,81.26
2022-11-14T23:10:54.144Z,81.03
2022-11-14T23:13:29.629Z,81.73
2022-11-14T23:16:31.812Z,81.58
2022-11-14T23:19:20.923Z,82.21
2022-11-14T23:22:10.336Z,83.29
2022-11-14T23:25:24.903Z,84.27
2022-11-14T23:28:03.350Z,85.79
2022-11-14T23:30:33.438Z,85.71
2022-11-14T23:33:35.159Z,86.24
2022-11-14T23:39:07.762Z,86.31
2022-11-14T23:42:05.136Z,86.93
2022-11-14T23:44:36.423Z,87.19
2022-11-14T23:50:32.917Z,87.40
2022-11-14T23:56:14.825Z,86.63
2022-11-14T23:58:57.606Z,86.35
